createdAt,value
2018-12-08T00:01:02.950Z,7.58
2018-12-08T00:03:31.116Z,7.57
2018-12-08T00:05:59.409Z,7.55
2018-12-08T00:08:27.676Z,7.57
2018-12-08T00:10:55.958Z,7.55
2018-12-08T00:13:24.148Z,7.57
2018-12-08T00:15:52.396Z,7.63
2018-12-08T00:18:20.665Z,7.67
2018-12-08T00:20:49.801Z,7.74
2018-12-08T00:23:18.036Z,7.78
2018-12-08T00:25:46.313Z,7.80
2018-12-08T00:28:14.497Z,7.83
2018-12-08T00:30:53.985Z,7.88
2018-12-08T00:33:22.197Z,7.91
2018-12-08T00:35:50.353Z,7.96
2018-12-08T00:38:18.587Z,7.97
2018-12-08T00:40:46.884Z,7.94
2018-12-08T00:43:15.097Z,7.91
2018-12-08T00:45:43.276Z,7.93
2018-12-08T00:48:11.550Z,7.95
2018-12-08T00:50:39.743Z,7.93
2018-12-08T00:56:01.565Z,7.90
2018-12-08T00:58:29.740Z,7.93
2018-12-08T01:00:57.916Z,7.92
2018-12-08T01:03:26.213Z,7.90
2018-12-08T01:05:54.486Z,7.85
2018-12-08T01:08:22.640Z,7.76
2018-12-08T01:10:50.816Z,7.68
2018-12-08T01:13:19.001Z,7.65
2018-12-08T01:15:47.186Z,7.61
2018-12-08T01:18:15.341Z,7.59
2018-12-08T01:20:43.512Z,7.57
2018-12-08T01:23:11.689Z,7.60
2018-12-08T01:25:39.856Z,7.60
2018-12-08T01:28:08.012Z,7.59
2018-12-08T01:30:37.164Z,7.59
2018-12-08T01:33:05.396Z,7.57
2018-12-08T01:35:33.681Z,7.58
2018-12-08T01:38:01.965Z,7.58
2018-12-08T01:40:30.121Z,7.57
2018-12-08T01:42:58.539Z,7.57
2018-12-08T01:45:26.881Z,7.56
2018-12-08T01:47:55.057Z,7.59
2018-12-08T01:50:23.336Z,7.60
2018-12-08T01:52:51.672Z,7.59
2018-12-08T01:55:19.900Z,7.58
2018-12-08T01:57:48.068Z,7.60
2018-12-08T02:00:16.461Z,7.59
2018-12-08T02:02:44.937Z,7.58
2018-12-08T02:05:13.407Z,7.61
2018-12-08T02:07:41.577Z,7.64
2018-12-08T02:10:09.889Z,7.64
2018-12-08T02:12:38.132Z,7.64
2018-12-08T02:15:06.547Z,7.67
2018-12-08T02:17:35.380Z,7.67
2018-12-08T02:20:04.384Z,7.67
2018-12-08T02:22:32.612Z,7.67
2018-12-08T02:25:00.845Z,7.65
2018-12-08T02:27:29.078Z,7.66
2018-12-08T02:29:57.283Z,7.66
2018-12-08T02:32:25.577Z,7.65
2018-12-08T02:34:53.864Z,7.66
2018-12-08T02:37:22.222Z,7.66
2018-12-08T02:39:50.494Z,7.65
2018-12-08T02:42:18.677Z,7.64
2018-12-08T02:44:46.901Z,7.68
2018-12-08T02:47:15.950Z,7.67
2018-12-08T02:49:44.149Z,7.68
2018-12-08T02:52:12.506Z,7.71
2018-12-08T02:54:40.768Z,7.74
2018-12-08T02:57:09.053Z,7.79
2018-12-08T02:59:37.309Z,7.78
2018-12-08T03:02:06.113Z,7.79
2018-12-08T03:04:34.401Z,7.82
2018-12-08T03:07:02.641Z,7.84
2018-12-08T03:09:31.028Z,7.85
2018-12-08T03:11:59.258Z,7.91
2018-12-08T03:14:27.823Z,7.93
2018-12-08T03:16:56.773Z,7.94
2018-12-08T03:19:25.060Z,7.99
2018-12-08T03:21:53.276Z,8.02
2018-12-08T03:24:21.652Z,8.04
2018-12-08T03:26:49.811Z,8.06
2018-12-08T03:29:18.076Z,8.04
2018-12-08T03:31:46.347Z,8.07
2018-12-08T03:34:14.668Z,8.09
2018-12-08T03:36:42.992Z,8.11
2018-12-08T03:39:11.261Z,8.13
2018-12-08T03:41:39.611Z,8.15
2018-12-08T03:44:08.132Z,8.16
2018-12-08T03:46:36.309Z,8.15
2018-12-08T03:49:04.586Z,8.16
2018-12-08T03:51:32.728Z,8.16
2018-12-08T03:54:00.893Z,8.17
2018-12-08T03:56:29.370Z,8.18
2018-12-08T03:58:58.368Z,8.20
2018-12-08T04:01:26.565Z,8.25
2018-12-08T04:03:54.739Z,8.25
2018-12-08T04:06:23.032Z,8.27
2018-12-08T04:08:51.258Z,8.28
2018-12-08T04:11:19.485Z,8.29
2018-12-08T04:13:47.646Z,8.30
2018-12-08T04:16:15.929Z,8.29
2018-12-08T04:18:44.201Z,8.32
2018-12-08T04:21:12.499Z,8.34
2018-12-08T04:23:41.587Z,8.34
2018-12-08T04:26:09.739Z,8.36
2018-12-08T04:28:37.903Z,8.41
2018-12-08T04:31:06.053Z,8.40
2018-12-08T04:33:34.247Z,8.44
2018-12-08T04:36:02.441Z,8.43
2018-12-08T04:38:30.652Z,8.41
2018-12-08T04:40:58.867Z,8.42
2018-12-08T04:43:27.033Z,8.42
2018-12-08T04:45:55.953Z,8.44
2018-12-08T04:48:24.152Z,8.43
2018-12-08T04:50:52.376Z,8.45
2018-12-08T04:53:20.558Z,8.48
2018-12-08T04:55:48.729Z,8.47
2018-12-08T04:58:17.553Z,8.48
2018-12-08T05:00:45.896Z,8.47
2018-12-08T05:03:14.049Z,8.41
2018-12-08T05:05:42.270Z,8.40
2018-12-08T05:08:12.092Z,8.40
2018-12-08T05:10:40.377Z,8.41
2018-12-08T05:13:08.696Z,8.40
2018-12-08T05:15:36.989Z,8.43
2018-12-08T05:18:05.157Z,8.42
2018-12-08T05:20:33.469Z,8.45
2018-12-08T05:23:01.615Z,8.44
2018-12-08T05:25:29.892Z,8.43
2018-12-08T05:27:58.064Z,8.45
2018-12-08T05:30:26.267Z,8.45
2018-12-08T05:32:54.428Z,8.45
2018-12-08T05:35:22.582Z,8.45
2018-12-08T05:37:50.869Z,8.44
2018-12-08T05:40:19.173Z,8.49
2018-12-08T05:42:47.348Z,8.50
2018-12-08T05:45:15.590Z,8.52
2018-12-08T05:47:43.757Z,8.50
2018-12-08T05:50:11.940Z,8.53
2018-12-08T05:52:40.097Z,8.52
2018-12-08T05:55:08.389Z,8.51
2018-12-08T05:57:36.597Z,8.55
2018-12-08T06:00:05.942Z,8.58
2018-12-08T06:02:34.129Z,8.59
2018-12-08T06:05:02.274Z,8.57
2018-12-08T06:07:30.517Z,8.58
2018-12-08T06:09:58.713Z,8.61
2018-12-08T06:12:26.857Z,8.60
2018-12-08T06:14:54.980Z,8.58
2018-12-08T06:17:23.215Z,8.59
2018-12-08T06:19:51.417Z,8.60
2018-12-08T06:22:19.667Z,8.62
2018-12-08T06:24:47.883Z,8.60
2018-12-08T06:27:26.317Z,8.58
2018-12-08T06:29:54.480Z,8.59
2018-12-08T06:32:22.622Z,8.59
2018-12-08T06:34:50.940Z,8.60
2018-12-08T06:37:19.080Z,8.60
2018-12-08T06:39:47.334Z,8.56
2018-12-08T06:42:15.488Z,8.55
2018-12-08T06:44:43.748Z,8.56
2018-12-08T06:47:11.934Z,8.55
2018-12-08T06:49:40.104Z,8.55
2018-12-08T06:52:08.298Z,8.56
2018-12-08T06:54:36.428Z,8.58
2018-12-08T06:57:04.593Z,8.55
2018-12-08T06:59:32.870Z,8.53
2018-12-08T07:02:01.168Z,8.54
2018-12-08T07:04:29.472Z,8.56
2018-12-08T07:06:57.799Z,8.57
2018-12-08T07:09:26.078Z,8.58
2018-12-08T07:11:54.364Z,8.55
2018-12-08T07:14:22.518Z,8.59
2018-12-08T07:16:50.811Z,8.58
2018-12-08T07:19:18.982Z,8.57
2018-12-08T07:21:47.157Z,8.59
2018-12-08T07:24:15.525Z,8.58
2018-12-08T07:26:43.837Z,8.56
2018-12-08T07:29:12.105Z,8.54
2018-12-08T07:31:40.365Z,8.49
2018-12-08T07:34:08.528Z,8.41
2018-12-08T07:36:36.949Z,8.39
2018-12-08T07:39:06.530Z,8.42
2018-12-08T07:41:34.801Z,8.36
2018-12-08T07:44:02.973Z,8.33
2018-12-08T07:46:31.151Z,8.33
2018-12-08T07:48:59.426Z,8.26
2018-12-08T07:51:27.938Z,8.22
2018-12-08T07:53:56.305Z,8.19
2018-12-08T07:56:24.569Z,8.22
2018-12-08T07:58:52.807Z,8.21
2018-12-08T08:01:21.334Z,8.20
2018-12-08T08:03:49.478Z,8.18
2018-12-08T08:06:18.481Z,8.16
2018-12-08T08:08:46.842Z,8.18
2018-12-08T08:11:15.016Z,8.18
2018-12-08T08:13:43.214Z,8.19
2018-12-08T08:16:11.381Z,8.21
2018-12-08T08:18:39.525Z,8.21
2018-12-08T08:21:07.729Z,8.22
2018-12-08T08:23:35.906Z,8.21
2018-12-08T08:26:04.176Z,8.20
2018-12-08T08:28:32.345Z,8.23
2018-12-08T08:31:00.508Z,8.24
2018-12-08T08:33:28.737Z,8.26
2018-12-08T08:35:56.965Z,8.30
2018-12-08T08:38:25.140Z,8.33
2018-12-08T08:40:53.268Z,8.33
2018-12-08T08:43:21.492Z,8.33
2018-12-08T08:45:49.722Z,8.35
2018-12-08T08:48:17.876Z,8.39
2018-12-08T08:50:46.141Z,8.41
2018-12-08T08:53:14.382Z,8.42
2018-12-08T08:55:42.666Z,8.45
2018-12-08T08:58:11.415Z,8.46
2018-12-08T09:00:39.860Z,8.49
2018-12-08T09:03:08.010Z,8.51
2018-12-08T09:05:36.219Z,8.52
2018-12-08T09:08:04.464Z,8.55
2018-12-08T09:10:32.622Z,8.58
2018-12-08T09:13:00.808Z,8.58
2018-12-08T09:15:28.981Z,8.60
2018-12-08T09:17:57.152Z,8.60
2018-12-08T09:20:25.975Z,8.63
2018-12-08T09:22:54.212Z,8.69
2018-12-08T09:25:22.410Z,8.72
2018-12-08T09:27:50.562Z,8.77
2018-12-08T09:30:18.730Z,8.79
2018-12-08T09:32:46.914Z,8.81
2018-12-08T09:35:15.204Z,8.82
2018-12-08T09:37:43.348Z,8.81
2018-12-08T09:40:11.533Z,8.81
2018-12-08T09:42:39.820Z,8.78
2018-12-08T09:45:08.461Z,8.77
2018-12-08T09:47:36.673Z,8.74
2018-12-08T09:50:06.311Z,8.73
2018-12-08T09:52:34.545Z,8.71
2018-12-08T09:55:02.844Z,8.72
2018-12-08T09:57:31.126Z,8.76
2018-12-08T09:59:59.291Z,8.76
2018-12-08T10:02:27.428Z,8.75
2018-12-08T10:04:55.568Z,8.74
2018-12-08T10:07:23.796Z,8.72
2018-12-08T10:09:52.209Z,8.73
2018-12-08T10:12:20.358Z,8.75
2018-12-08T10:14:48.544Z,8.78
2018-12-08T10:17:16.820Z,8.79
2018-12-08T10:19:44.987Z,8.83
2018-12-08T10:22:13.278Z,8.87
2018-12-08T10:24:41.425Z,8.91
2018-12-08T10:27:09.773Z,8.93
2018-12-08T10:29:37.990Z,8.95
2018-12-08T10:32:05.361Z,8.94
2018-12-08T10:34:33.609Z,8.97
2018-12-08T10:37:01.766Z,8.97
2018-12-08T10:39:30.178Z,8.97
2018-12-08T10:41:58.326Z,8.99
2018-12-08T10:44:26.518Z,9.01
2018-12-08T10:46:54.689Z,9.00
2018-12-08T10:49:22.992Z,9.00
2018-12-08T10:51:51.347Z,8.99
2018-12-08T10:54:19.514Z,9.01
2018-12-08T10:56:48.261Z,9.04
2018-12-08T10:59:16.504Z,9.09
2018-12-08T11:01:49.933Z,9.11
2018-12-08T11:04:18.203Z,9.15
2018-12-08T11:06:46.325Z,9.18
2018-12-08T11:09:14.497Z,9.22
2018-12-08T11:11:42.636Z,9.26
2018-12-08T11:14:10.876Z,9.30
2018-12-08T11:16:39.046Z,9.35
2018-12-08T11:19:07.385Z,9.40
2018-12-08T11:21:35.609Z,9.45
2018-12-08T11:24:03.866Z,9.48
2018-12-08T11:26:32.135Z,9.50
2018-12-08T11:29:00.276Z,9.54
2018-12-08T11:31:28.548Z,9.57
2018-12-08T11:33:56.680Z,9.61
2018-12-08T11:36:24.900Z,9.66
2018-12-08T11:38:53.181Z,9.67
2018-12-08T11:41:21.353Z,9.69
2018-12-08T11:43:49.651Z,9.72
2018-12-08T11:46:18.183Z,9.75
2018-12-08T11:48:46.369Z,9.79
2018-12-08T11:51:14.572Z,9.79
2018-12-08T11:53:42.848Z,9.82
2018-12-08T11:56:11.354Z,9.85
2018-12-08T11:58:39.582Z,9.86
2018-12-08T12:01:07.787Z,9.92
2018-12-08T12:03:35.945Z,9.91
2018-12-08T12:06:04.283Z,9.91
2018-12-08T12:08:32.512Z,9.90
2018-12-08T12:11:00.645Z,9.87
2018-12-08T12:13:28.980Z,9.84
2018-12-08T12:15:57.257Z,9.80
2018-12-08T12:18:25.515Z,9.80
2018-12-08T12:20:54.196Z,9.79
2018-12-08T12:23:22.364Z,9.78
2018-12-08T12:25:50.710Z,9.77
2018-12-08T12:28:19.818Z,9.78
2018-12-08T12:30:48.304Z,9.79
2018-12-08T12:33:16.521Z,9.80
2018-12-08T12:35:44.736Z,9.80
2018-12-08T12:38:13.032Z,9.81
2018-12-08T12:40:41.192Z,9.81
2018-12-08T12:43:09.753Z,9.82
2018-12-08T12:45:38.060Z,9.81
2018-12-08T12:48:06.341Z,9.79
2018-12-08T12:50:34.607Z,9.78
2018-12-08T12:53:02.887Z,9.77
2018-12-08T12:55:31.205Z,9.76
2018-12-08T12:57:59.437Z,9.72
2018-12-08T13:00:27.721Z,9.67
2018-12-08T13:02:55.889Z,9.63
2018-12-08T13:05:24.072Z,9.56
2018-12-08T13:07:52.231Z,9.49
2018-12-08T13:10:20.448Z,9.45
2018-12-08T13:12:48.592Z,9.42
2018-12-08T13:15:16.865Z,9.38
2018-12-08T13:17:45.143Z,9.39
2018-12-08T13:20:13.327Z,9.41
2018-12-08T13:22:41.504Z,9.40
2018-12-08T13:25:23.652Z,9.40
2018-12-08T13:27:51.800Z,9.42
2018-12-08T13:30:20.265Z,9.43
2018-12-08T13:32:48.469Z,9.41
2018-12-08T13:35:57.813Z,9.42
2018-12-08T13:38:26.858Z,9.43
2018-12-08T13:40:55.148Z,9.45
2018-12-08T13:43:23.286Z,9.46
2018-12-08T13:45:51.681Z,9.47
2018-12-08T13:48:21.744Z,9.49
2018-12-08T13:50:50.165Z,9.49
2018-12-08T13:53:18.780Z,9.51
2018-12-08T13:55:47.037Z,9.52
2018-12-08T13:58:15.219Z,9.55
2018-12-08T14:00:43.464Z,9.58
2018-12-08T14:03:11.648Z,9.61
2018-12-08T14:05:39.817Z,9.65
2018-12-08T14:08:08.198Z,9.67
2018-12-08T14:10:36.520Z,9.71
2018-12-08T14:13:04.788Z,9.73
2018-12-08T14:15:33.053Z,9.75
2018-12-08T14:18:01.329Z,9.79
2018-12-08T14:20:31.590Z,9.81
2018-12-08T14:22:59.816Z,9.84
2018-12-08T14:25:28.288Z,9.86
2018-12-08T14:27:56.496Z,9.87
2018-12-08T14:30:25.831Z,9.87
2018-12-08T14:32:54.063Z,9.91
2018-12-08T14:35:22.304Z,9.92
2018-12-08T14:37:50.777Z,9.93
2018-12-08T14:40:18.934Z,9.94
2018-12-08T14:42:47.195Z,9.97
2018-12-08T14:45:15.633Z,9.98
2018-12-08T14:47:43.925Z,10.00
2018-12-08T14:50:12.332Z,10.01
2018-12-08T14:52:40.572Z,10.04
2018-12-08T14:55:10.131Z,10.04
2018-12-08T14:57:38.453Z,10.06
2018-12-08T15:00:10.801Z,10.07
2018-12-08T15:02:39.068Z,10.07
2018-12-08T15:05:09.593Z,10.09
2018-12-08T15:07:37.992Z,10.10
2018-12-08T15:10:09.212Z,10.11
2018-12-08T15:12:37.456Z,10.11
2018-12-08T15:15:06.600Z,10.11
2018-12-08T15:17:34.796Z,10.09
2018-12-08T15:20:03.195Z,10.11
2018-12-08T15:22:31.336Z,10.11
2018-12-08T15:24:59.478Z,10.11
2018-12-08T15:27:27.725Z,10.10
2018-12-08T15:29:55.981Z,10.08
2018-12-08T15:32:24.213Z,10.10
2018-12-08T15:34:52.453Z,10.13
2018-12-08T15:37:20.673Z,10.14
2018-12-08T15:39:48.913Z,10.14
2018-12-08T15:42:17.153Z,10.16
2018-12-08T15:44:46.961Z,10.18
2018-12-08T15:47:15.345Z,10.20
2018-12-08T15:49:43.571Z,10.21
2018-12-08T15:52:11.881Z,10.23
2018-12-08T15:54:40.045Z,10.24
2018-12-08T15:57:08.323Z,10.27
2018-12-08T15:59:36.488Z,10.28
2018-12-08T16:02:04.658Z,10.28
2018-12-08T16:04:33.010Z,10.30
2018-12-08T16:07:01.242Z,10.31
2018-12-08T16:09:29.710Z,10.35
2018-12-08T16:11:57.840Z,10.36
2018-12-08T16:14:26.048Z,10.37
2018-12-08T16:16:54.316Z,10.37
2018-12-08T16:19:22.613Z,10.40
2018-12-08T16:21:50.764Z,10.41
2018-12-08T16:24:18.950Z,10.42
2018-12-08T16:26:49.381Z,10.44
2018-12-08T16:29:17.615Z,10.44
2018-12-08T16:31:45.813Z,10.46
2018-12-08T16:34:14.201Z,10.47
2018-12-08T16:36:42.459Z,10.48
2018-12-08T16:39:10.601Z,10.49
2018-12-08T16:41:38.853Z,10.50
2018-12-08T16:44:07.098Z,10.52
2018-12-08T16:46:35.232Z,10.53
2018-12-08T16:49:03.753Z,10.55
2018-12-08T16:51:32.012Z,10.55
2018-12-08T16:54:00.523Z,10.54
2018-12-08T16:56:28.754Z,10.53
2018-12-08T16:58:57.070Z,10.49
2018-12-08T17:01:25.232Z,10.48
2018-12-08T17:03:53.562Z,10.44
2018-12-08T17:06:21.807Z,10.43
2018-12-08T17:08:50.066Z,10.42
2018-12-08T17:11:18.341Z,10.41
2018-12-08T17:13:46.540Z,10.43
2018-12-08T17:16:14.692Z,10.43
2018-12-08T17:21:34.855Z,10.35
2018-12-08T17:24:03.066Z,10.33
2018-12-08T17:26:31.353Z,10.32
2018-12-08T17:28:59.517Z,10.29
2018-12-08T17:31:27.665Z,10.30
2018-12-08T17:33:55.806Z,10.28
2018-12-08T17:36:24.065Z,10.27
2018-12-08T17:38:52.234Z,10.28
2018-12-08T17:41:20.385Z,10.26
2018-12-08T17:43:48.529Z,10.23
2018-12-08T17:46:16.737Z,10.25
2018-12-08T17:48:44.973Z,10.23
2018-12-08T17:51:13.180Z,10.23
2018-12-08T17:53:41.525Z,10.23
2018-12-08T17:56:09.733Z,10.25
2018-12-08T17:58:37.888Z,10.25
2018-12-08T18:01:06.201Z,10.24
2018-12-08T18:03:34.445Z,10.25
2018-12-08T18:06:02.705Z,10.27
2018-12-08T18:08:31.042Z,10.29
2018-12-08T18:10:59.597Z,10.29
2018-12-08T18:13:27.761Z,10.30
2018-12-08T18:15:55.959Z,10.32
2018-12-08T18:18:24.103Z,10.32
2018-12-08T18:20:52.926Z,10.35
2018-12-08T18:23:21.565Z,10.35
2018-12-08T18:25:49.807Z,10.36
2018-12-08T18:28:18.066Z,10.35
2018-12-08T18:30:46.278Z,10.35
2018-12-08T18:33:14.493Z,10.33
2018-12-08T18:35:42.659Z,10.30
2018-12-08T18:38:10.828Z,10.30
2018-12-08T18:40:39.078Z,10.28
2018-12-08T18:43:07.282Z,10.27
2018-12-08T18:45:35.537Z,10.23
2018-12-08T18:48:03.840Z,10.21
2018-12-08T18:50:32.013Z,10.18
2018-12-08T18:53:00.177Z,10.17
2018-12-08T18:55:28.349Z,10.11
2018-12-08T18:57:56.585Z,10.09
2018-12-08T19:00:24.846Z,10.09
2018-12-08T19:02:53.005Z,10.11
2018-12-08T19:05:21.145Z,10.12
2018-12-08T19:07:49.553Z,10.07
2018-12-08T19:10:18.109Z,10.05
2018-12-08T19:12:46.484Z,10.00
2018-12-08T19:15:14.783Z,10.00
2018-12-08T19:17:43.048Z,9.99
2018-12-08T19:20:11.264Z,9.99
2018-12-08T19:22:39.509Z,9.97
2018-12-08T19:25:08.320Z,9.97
2018-12-08T19:27:36.553Z,9.95
2018-12-08T19:30:06.659Z,9.94
2018-12-08T19:32:36.266Z,9.94
2018-12-08T19:35:06.165Z,9.93
2018-12-08T19:37:34.296Z,9.94
2018-12-08T19:40:07.385Z,9.97
2018-12-08T19:42:40.946Z,9.96
2018-12-08T19:45:11.423Z,9.97
2018-12-08T19:47:41.092Z,9.97
2018-12-08T19:50:12.133Z,9.97
2018-12-08T19:52:40.239Z,9.97
2018-12-08T19:55:08.987Z,9.96
2018-12-08T19:57:40.417Z,9.94
2018-12-08T20:00:13.602Z,9.94
2018-12-08T20:02:41.934Z,9.95
2018-12-08T20:05:10.317Z,9.95
2018-12-08T20:07:38.674Z,9.95
2018-12-08T20:10:07.366Z,9.97
2018-12-08T20:12:36.428Z,9.97
2018-12-08T20:15:05.470Z,9.97
2018-12-08T20:17:34.022Z,9.99
2018-12-08T20:20:02.328Z,10.00
2018-12-08T20:22:31.483Z,10.00
2018-12-08T20:24:59.846Z,9.96
2018-12-08T20:27:28.290Z,9.95
2018-12-08T20:29:56.529Z,9.90
2018-12-08T20:32:24.673Z,9.89
2018-12-08T20:34:52.889Z,9.88
2018-12-08T20:37:21.173Z,9.87
2018-12-08T20:39:49.312Z,9.88
2018-12-08T20:42:17.504Z,9.91
2018-12-08T20:44:45.760Z,9.93
2018-12-08T20:47:14.061Z,9.94
2018-12-08T20:49:42.229Z,9.96
2018-12-08T20:52:10.415Z,9.98
2018-12-08T20:54:38.568Z,10.01
2018-12-08T20:57:06.758Z,10.01
2018-12-08T20:59:35.988Z,10.03
2018-12-08T21:02:04.851Z,10.05
2018-12-08T21:04:33.076Z,10.08
2018-12-08T21:07:01.281Z,10.11
2018-12-08T21:09:29.448Z,10.14
2018-12-08T21:11:57.591Z,10.21
2018-12-08T21:14:25.994Z,10.26
2018-12-08T21:16:55.993Z,10.28
2018-12-08T21:19:24.329Z,10.32
2018-12-08T21:21:52.733Z,10.34
2018-12-08T21:24:20.861Z,10.36
2018-12-08T21:26:49.192Z,10.38
2018-12-08T21:29:17.352Z,10.40
2018-12-08T21:31:45.573Z,10.40
2018-12-08T21:34:13.846Z,10.39
2018-12-08T21:36:41.980Z,10.39
2018-12-08T21:39:10.225Z,10.40
2018-12-08T21:41:38.489Z,10.35
2018-12-08T21:44:07.889Z,10.37
2018-12-08T21:46:36.312Z,10.39
2018-12-08T21:49:04.606Z,10.40
2018-12-08T21:51:32.791Z,10.39
2018-12-08T21:54:00.932Z,10.38
2018-12-08T21:56:29.125Z,10.36
2018-12-08T21:58:57.345Z,10.34
2018-12-08T22:01:25.622Z,10.36
2018-12-08T22:03:53.857Z,10.35
2018-12-08T22:06:22.185Z,10.35
2018-12-08T22:08:50.558Z,10.32
2018-12-08T22:11:18.738Z,10.31
2018-12-08T22:13:46.950Z,10.32
2018-12-08T22:16:15.148Z,10.32
2018-12-08T22:18:43.301Z,10.32
2018-12-08T22:21:11.618Z,10.33
2018-12-08T22:23:39.835Z,10.33
2018-12-08T22:26:08.076Z,10.34
2018-12-08T22:28:36.248Z,10.34
2018-12-08T22:31:04.528Z,10.40
2018-12-08T22:33:32.777Z,10.48
2018-12-08T22:36:01.133Z,10.55
2018-12-08T22:38:29.460Z,10.58
2018-12-08T22:40:57.604Z,10.62
2018-12-08T22:43:25.754Z,10.62
2018-12-08T22:45:53.952Z,10.64
2018-12-08T22:48:22.101Z,10.64
2018-12-08T22:50:50.332Z,10.64
2018-12-08T22:53:18.577Z,10.64
2018-12-08T22:55:54.056Z,10.64
2018-12-08T22:58:22.196Z,10.63
2018-12-08T23:00:52.409Z,10.66
2018-12-08T23:03:20.697Z,10.64
2018-12-08T23:05:49.075Z,10.63
2018-12-08T23:08:17.269Z,10.63
2018-12-08T23:10:45.439Z,10.63
2018-12-08T23:13:13.665Z,10.64
2018-12-08T23:15:41.925Z,10.65
2018-12-08T23:18:09.657Z,10.68
2018-12-08T23:20:37.904Z,10.72
2018-12-08T23:23:06.400Z,10.75
2018-12-08T23:25:34.787Z,10.75
2018-12-08T23:28:03.144Z,10.75
2018-12-08T23:30:31.345Z,10.72
2018-12-08T23:32:59.527Z,10.61
2018-12-08T23:35:27.774Z,10.36
2018-12-08T23:37:56.076Z,10.17
2018-12-08T23:40:24.333Z,9.92
2018-12-08T23:42:52.505Z,9.68
2018-12-08T23:45:20.673Z,9.43
2018-12-08T23:47:48.837Z,9.28
2018-12-08T23:50:17.081Z,9.13
2018-12-08T23:52:45.265Z,8.95
2018-12-08T23:55:13.454Z,8.83
2018-12-08T23:57:41.654Z,8.66
